Disclaimer

Please do not use the information listed here in-flight or in-navigation, as they are not provided to us by the airports but are provided by volunteers, so they might be outdated.

Search


Regions


Airport information page

Radio informations:
RDO - 118.75 MHz

Airport informations:
Latitude: 40° 11' 30.74" N
Longitude: 140° 22' 17.15" E
Elevation: 292 feet - 89 meters
Operating hours: Remarks
Operating agency: Civil government, landing fees and diplomatic clearance may be required
Timezone: UTC+9
Fuel: N/A

Runway information:
11/29 - 6562 x 148 feet< - >2000 x 45 meters

Recent METARs:
RJSR 182300Z VRB01KT 4000 BCFG BR FEW001 SCT005 BKN090 04/04 Q1013
RJSR 182300Z VRB01KT 4000 BCFG BR FEW001 SCT005 BKN090 04/04 Q1013

Airport on the map: